Time;durP1;ratioP1;P1;durP2;ratioP2;P2;SDS_P1;SDS_P2;PMS_P1;PMS_P2;Temp;Humidity;BMP_temperature;BMP_pressure;BME280_temperature;BME280_humidity;BME280_pressure;Samples;Min_cycle;Max_cycle;Signal;HPM_P1;HPM_P2
2023/11/10 00:01:28;;;;;;;9.50;3.53;;;;;;;;;;2605522;54;20030;-78
2023/11/10 00:04:06;;;;;;;7.90;3.85;;;;;;;;;;2637859;39;20405;-79
2023/11/10 00:06:39;;;;;;;6.30;3.97;;;;;;;;;;2607513;46;20134;-81
2023/11/10 00:09:15;;;;;;;6.15;3.88;;;10.10;97.90;;;;;;2629799;54;20007;31
2023/11/10 00:11:48;;;;;;;7.30;3.95;;;;;;;;;;2616458;54;20022;-82
2023/11/10 00:14:25;;;;;;;6.05;3.88;;;;;;;;;;2630372;54;20038;-81
2023/11/10 00:17:17;;;;;;;7.03;4.43;;;;;;;;;;2628785;54;20030;-80
2023/11/10 00:19:52;;;;;;;5.85;4.18;;;;;;;;;;2606144;54;20074;-81
2023/11/10 00:22:31;;;;;;;6.95;3.80;;;;;;;;;;2629125;54;20015;-82
2023/11/10 00:25:06;;;;;;;7.18;3.75;;;;;;;;;;2618069;54;20471;-82
2023/11/10 00:27:43;;;;;;;6.97;4.32;;;10.20;96.30;;;;;;2626195;54;20026;31
2023/11/10 00:30:20;;;;;;;6.15;4.40;;;10.20;97.40;;;;;;2603263;54;20588;31
2023/11/10 00:32:56;;;;;;;6.18;4.32;;;;;;;;;;2605289;54;20049;31
2023/11/10 00:35:32;;;;;;;7.20;3.90;;;;;;;;;;2606006;54;19931;-81
2023/11/10 00:38:05;;;;;;;6.82;3.83;;;;;;;;;;2605913;54;20872;31
2023/11/10 00:40:38;;;;;;;9.15;4.10;;;;;;;;;;2619686;47;21619;-81
2023/11/10 00:43:12;;;;;;;7.53;4.45;;;;;;;;;;2629664;54;20023;-82
2023/11/10 00:45:45;;;;;;;5.40;3.33;;;;;;;;;;2627780;54;20553;-82
2023/11/10 00:48:18;;;;;;;5.78;3.50;;;;;;;;;;2628210;54;20123;-81
2023/11/10 00:50:54;;;;;;;4.28;3.40;;;;;;;;;;2630061;47;20021;-82
2023/11/10 00:53:30;;;;;;;;;;;10.20;99.90;;;;;;2629010;54;20037;-82
2023/11/10 00:56:03;;;;;;;8.17;4.07;;;;;;;;;;2628943;47;20529;-80
2023/11/10 00:58:34;;;;;;;6.88;3.80;;;10.30;99.90;;;;;;2606955;54;20019;-81
2023/11/10 01:01:08;;;;;;;9.20;3.78;;;10.00;99.90;;;;;;2616730;47;20070;-80
2023/11/10 01:03:39;;;;;;;6.82;4.15;;;;;;;;;;2606027;54;20098;-82
2023/11/10 01:06:15;;;;;;;9.30;3.85;;;;;;;;;;2618624;54;20030;-81
2023/11/10 01:11:18;;;;;;;6.13;4.20;;;;;;;;;;2608606;47;20778;-79
2023/11/10 01:13:53;;;;;;;5.97;4.00;;;;;;;;;;2623339;47;20030;-84
2023/11/10 01:16:28;;;;;;;7.30;4.30;;;;;;;;;;2619442;54;20996;31
2023/11/10 01:19:02;;;;;;;8.50;4.68;;;;;;;;;;2626650;54;20040;31
2023/11/10 01:21:37;;;;;;;6.47;4.38;;;;;;;;;;2609547;47;20599;31
2023/11/10 01:24:11;;;;;;;7.63;4.35;;;;;;;;;;2605285;54;20057;-83
2023/11/10 01:26:48;;;;;;;7.30;4.30;;;10.10;99.90;;;;;;2605493;54;20906;-82
2023/11/10 01:29:21;;;;;;;7.82;4.75;;;;;;;;;;2604835;54;20898;-80
2023/11/10 01:31:53;;;;;;;6.47;4.40;;;;;;;;;;2605443;54;20856;-81
2023/11/10 01:34:29;;;;;;;7.53;4.30;;;;;;;;;;2606043;54;20034;-82
2023/11/10 01:37:05;;;;;;;8.65;4.30;;;;;;;;;;2607225;46;20027;31
2023/11/10 01:39:41;;;;;;;7.47;4.75;;;;;;;;;;2606952;46;20038;-80
2023/11/10 01:42:16;;;;;;;8.75;5.95;;;10.00;99.90;;;;;;2602984;54;20038;31
2023/11/10 01:44:52;;;;;;;8.23;4.70;;;;;;;;;;2606444;54;20060;-81
2023/11/10 01:47:27;;;;;;;9.15;4.47;;;;;;;;;;2605826;54;20108;31
2023/11/10 01:50:00;;;;;;;10.00;4.95;;;;;;;;;;2605319;54;20089;31
2023/11/10 01:52:38;;;;;;;7.20;5.15;;;;;;;;;;2619925;39;20489;-82
2023/11/10 01:55:16;;;;;;;8.10;5.40;;;9.90;99.90;;;;;;2702248;39;20414;31
2023/11/10 01:57:52;;;;;;;8.90;5.55;;;9.90;99.90;;;;;;2702193;39;21532;31
2023/11/10 02:00:30;;;;;;;6.97;5.10;;;9.80;99.90;;;;;;2701897;39;21516;31
2023/11/10 02:03:04;;;;;;;8.32;5.28;;;9.50;99.90;;;;;;2605137;54;20026;31
2023/11/10 02:05:41;;;;;;;9.40;5.57;;;9.80;99.90;;;;;;2603637;54;20081;31
2023/11/10 02:08:19;;;;;;;8.90;5.85;;;9.80;99.90;;;;;;2702056;39;20399;31
2023/11/10 02:10:54;;;;;;;7.05;5.30;;;9.70;99.90;;;;;;2603501;54;20042;31
2023/11/10 02:13:29;;;;;;;10.43;5.63;;;9.50;99.90;;;;;;2603518;54;20580;31
2023/11/10 02:16:05;;;;;;;10.05;5.40;;;9.70;99.90;;;;;;2603651;54;20038;31
2023/11/10 02:18:41;;;;;;;7.63;4.85;;;9.70;99.90;;;;;;2604023;46;20035;31
2023/11/10 02:21:16;;;;;;;5.97;4.97;;;9.70;99.90;;;;;;2701962;39;20469;31
2023/11/10 02:23:56;;;;;;;12.38;6.22;;;9.70;99.90;;;;;;2612076;39;21565;31
2023/11/10 02:26:40;;;;;;;8.00;5.68;;;;;;;;;;2605109;54;20812;31
2023/11/10 02:29:15;;;;;;;8.35;4.75;;;;;;;;;;2605200;54;20081;-78
2023/11/10 02:31:49;;;;;;;10.50;5.68;;;;;;;;;;2605071;54;20026;31
2023/11/10 02:34:28;;;;;;;6.53;5.03;;;;;;;;;;2606127;54;20089;-81
2023/11/10 02:37:02;;;;;;;13.70;5.95;;;;;;;;;;2605973;54;20026;-82
2023/11/10 02:39:38;;;;;;;8.10;5.47;;;;;;;;;;2606458;54;20824;-81
2023/11/10 02:42:16;;;;;;;10.57;5.80;;;;;;;;;;2606203;54;21750;-81
2023/11/10 02:44:54;;;;;;;8.63;6.05;;;9.50;99.90;;;;;;2606153;54;20062;-81
2023/11/10 02:47:26;;;;;;;8.88;5.65;;;9.50;99.90;;;;;;2608366;54;20025;31
2023/11/10 02:50:02;;;;;;;7.85;5.32;;;9.40;99.90;;;;;;2603881;46;20018;31
2023/11/10 02:52:41;;;;;;;9.93;5.77;;;9.30;99.90;;;;;;2605306;54;20952;-82
2023/11/10 02:55:14;;;;;;;9.18;5.68;;;9.40;99.90;;;;;;2614553;54;20419;-82
2023/11/10 02:57:51;;;;;;;9.73;5.80;;;;;;;;;;2606726;47;20793;31
2023/11/10 03:00:28;;;;;;;10.05;6.13;;;9.30;99.90;;;;;;2605844;54;20026;-81
2023/11/10 03:03:02;;;;;;;7.55;5.65;;;;;;;;;;2606857;54;20026;31
2023/11/10 03:05:40;;;;;;;8.52;5.43;;;;;;;;;;2606391;54;20029;31
2023/11/10 03:08:11;;;;;;;12.75;6.65;;;;;;;;;;2631761;39;20349;31
2023/11/10 03:10:45;;;;;;;10.02;5.72;;;;;;;;;;2606287;54;20023;31
2023/11/10 03:13:25;;;;;;;9.30;6.30;;;9.30;99.90;;;;;;2624661;46;20030;-81
2023/11/10 03:15:56;;;;;;;8.35;4.90;;;;;;;;;;2605270;54;20105;-82
2023/11/10 03:18:33;;;;;;;8.68;5.22;;;9.40;99.90;;;;;;2643250;39;20382;-82
2023/11/10 03:21:08;;;;;;;9.57;5.10;;;;;;;;;;2606765;54;20026;31
2023/11/10 03:23:42;;;;;;;7.68;4.50;;;;;;;;;;2605840;54;20026;31
2023/11/10 03:26:16;;;;;;;12.18;5.22;;;;;;;;;;2605800;54;20896;-81
2023/11/10 03:28:51;;;;;;;8.93;5.13;;;;;;;;;;2605884;54;20046;-80
2023/11/10 03:31:24;;;;;;;9.32;4.45;;;;;;;;;;2624851;46;20105;31
2023/11/10 03:33:58;;;;;;;7.38;3.85;;;;;;;;;;2606747;54;20046;-80
2023/11/10 03:36:31;;;;;;;7.75;4.18;;;;;;;;;;2605707;54;20026;31
2023/11/10 03:39:05;;;;;;;9.32;4.65;;;;;;;;;;2625315;46;20848;-82
2023/11/10 03:41:43;;;;;;;8.30;4.40;;;9.50;99.90;;;;;;2605998;54;20085;-81
2023/11/10 03:44:16;;;;;;;5.70;4.32;;;9.60;99.90;;;;;;2605812;54;20807;-81
2023/11/10 03:46:54;;;;;;;5.40;4.20;;;9.40;99.90;;;;;;2664793;31;20566;31
2023/11/10 03:49:26;;;;;;;10.27;4.68;;;9.40;99.90;;;;;;2605281;54;20045;-78
2023/11/10 03:51:56;;;;;;;6.82;4.55;;;;;;;;;;2605941;54;20026;-82
2023/11/10 03:54:29;;;;;;;5.80;4.13;;;;;;;;;;2604899;54;20891;31
2023/11/10 03:57:03;;;;;;;8.93;5.13;;;9.60;99.90;;;;;;2605539;54;20028;31
2023/11/10 03:59:35;;;;;;;7.85;5.40;;;;;;;;;;2613708;39;21551;-80
2023/11/10 04:02:13;;;;;;;12.23;5.43;;;9.40;99.90;;;;;;2603177;54;21321;-78
2023/11/10 04:04:51;;;;;;;7.80;4.88;;;;;;;;;;2605303;54;20960;-84
2023/11/10 04:07:24;;;;;;;7.57;5.07;;;9.40;99.90;;;;;;2603460;54;20027;-78
2023/11/10 04:10:00;;;;;;;8.10;4.85;;;;;;;;;;2605188;54;20826;31
2023/11/10 04:12:34;;;;;;;9.68;5.15;;;9.30;99.90;;;;;;2604869;54;20171;31
2023/11/10 04:15:08;;;;;;;7.60;4.32;;;;;;;;;;2606321;54;20109;31
2023/11/10 04:17:48;;;;;;;7.45;4.47;;;9.40;99.90;;;;;;2603354;54;20022;31
2023/11/10 04:20:24;;;;;;;8.02;4.95;;;;;;;;;;2605330;54;20036;31
2023/11/10 04:23:00;;;;;;;7.15;4.78;;;;;;;;;;2602821;54;20022;31
2023/11/10 04:25:34;;;;;;;7.03;4.43;;;;;;;;;;2603428;54;20042;-79
2023/11/10 04:28:11;;;;;;;8.60;5.03;;;9.20;99.90;;;;;;2608326;46;20894;31
2023/11/10 04:30:47;;;;;;;8.95;5.35;;;;;;;;;;2603165;54;20912;31
2023/11/10 04:33:27;;;;;;;6.78;4.28;;;;;;;;;;2603550;46;20030;31
2023/11/10 04:36:03;;;;;;;9.70;5.22;;;;;;;;;;2621705;46;20525;31
2023/11/10 04:38:36;;;;;;;9.50;4.82;;;;;;;;;;2604796;54;20025;31
2023/11/10 04:41:11;;;;;;;8.63;5.07;;;9.10;99.90;;;;;;2607873;46;20908;31
2023/11/10 04:43:48;;;;;;;9.57;4.57;;;;;;;;;;2603332;54;20022;31
2023/11/10 04:46:24;;;;;;;7.38;4.38;;;;;;;;;;2605215;54;20517;31
2023/11/10 04:49:02;;;;;;;6.55;3.90;;;;;;;;;;2603311;54;20085;31
2023/11/10 04:51:36;;;;;;;5.60;3.97;;;;;;;;;;2623631;46;20565;31
2023/11/10 04:54:16;;;;;;;7.60;4.70;;;9.10;99.90;;;;;;2605438;54;20557;-82
2023/11/10 04:56:48;;;;;;;6.43;4.40;;;;;;;;;;2606116;54;20266;-82
2023/11/10 04:59:22;;;;;;;9.30;4.55;;;9.50;99.90;;;;;;2605437;54;20136;-79
2023/11/10 05:01:57;;;;;;;7.22;4.68;;;;;;;;;;2609557;54;20110;-78
2023/11/10 05:04:35;;;;;;;8.83;4.70;;;9.30;99.90;;;;;;2605860;54;20889;-79
2023/11/10 05:07:10;;;;;;;6.68;4.55;;;9.20;99.90;;;;;;2605132;54;20251;31
2023/11/10 05:09:43;;;;;;;5.88;4.45;;;9.10;99.90;;;;;;2605793;54;20805;-82
2023/11/10 05:12:20;;;;;;;7.68;5.13;;;9.10;99.90;;;;;;2604865;54;20023;-80
2023/11/10 05:14:55;;;;;;;7.78;4.40;;;;;;;;;;2603742;54;20928;31
2023/11/10 05:17:28;;;;;;;7.18;4.60;;;9.20;99.90;;;;;;2630927;39;20485;-77
2023/11/10 05:20:04;;;;;;;7.35;4.25;;;9.00;99.90;;;;;;2603789;54;20873;31
2023/11/10 05:22:39;;;;;;;7.82;4.80;;;;;;;;;;2604801;54;20885;-83
2023/11/10 05:25:12;;;;;;;6.55;4.35;;;;;;;;;;2606605;46;20924;-79
2023/11/10 05:27:46;;;;;;;6.85;4.57;;;;;;;;;;2609507;46;20880;31
2023/11/10 05:30:22;;;;;;;8.23;5.10;;;;;;;;;;2609786;39;20471;31
2023/11/10 05:32:55;;;;;;;6.95;4.55;;;;;;;;;;2619155;39;20415;31
2023/11/10 05:35:31;;;;;;;7.63;4.78;;;;;;;;;;2606127;54;20035;31
2023/11/10 05:38:07;;;;;;;8.27;4.63;;;;;;;;;;2612903;54;20034;-82
2023/11/10 05:40:41;;;;;;;9.87;4.90;;;;;;;;;;2603923;54;20023;31
2023/11/10 05:43:14;;;;;;;9.68;4.60;;;;;;;;;;2606750;46;20022;-80
2023/11/10 05:45:46;;;;;;;8.27;5.03;;;;;;;;;;2660226;39;20390;31
2023/11/10 05:48:22;;;;;;;9.27;4.68;;;;;;;;;;2613061;31;20522;31
2023/11/10 05:51:03;;;;;;;7.85;5.05;;;;;;;;;;2603276;54;20827;31
2023/11/10 05:53:36;;;;;;;9.48;4.68;;;;;;;;;;2605394;54;20521;31
2023/11/10 05:56:11;;;;;;;5.63;4.20;;;;;;;;;;2602948;54;20999;31
2023/11/10 05:58:45;;;;;;;7.20;4.53;;;;;;;;;;2607077;54;21072;31
2023/11/10 06:01:24;;;;;;;7.10;4.90;;;;;;;;;;2607682;46;20029;31
2023/11/10 06:03:58;;;;;;;6.80;4.90;;;9.00;99.90;;;;;;2603800;46;20505;31
2023/11/10 06:06:36;;;;;;;11.88;5.03;;;8.90;99.90;;;;;;2603768;54;20823;31
2023/11/10 06:09:11;;;;;;;7.70;5.10;;;8.80;99.90;;;;;;2603702;54;20049;31
2023/11/10 06:11:47;;;;;;;7.15;4.55;;;8.80;99.90;;;;;;2603473;54;20980;31
2023/11/10 06:14:31;;;;;;;7.60;4.70;;;8.70;99.90;;;;;;2603475;54;20995;31
2023/11/10 06:17:10;;;;;;;7.25;4.45;;;8.70;99.90;;;;;;2603485;54;21708;31
2023/11/10 06:19:45;;;;;;;6.35;4.53;;;;;;;;;;2701684;39;20475;31
2023/11/10 06:22:21;;;;;;;8.15;5.00;;;8.50;99.90;;;;;;2603624;46;20104;31
2023/11/10 06:24:56;;;;;;;9.25;5.75;;;8.50;99.90;;;;;;2603673;54;20505;31
2023/11/10 06:27:31;;;;;;;11.20;5.13;;;8.50;99.90;;;;;;2603821;46;20129;31
2023/11/10 06:30:09;;;;;;;17.10;7.20;;;8.50;99.90;;;;;;2603301;54;20868;31
2023/11/10 06:32:45;;;;;;;67.03;23.13;;;8.40;99.90;;;;;;2603607;54;20027;31
2023/11/10 06:35:22;;;;;;;118.75;41.70;;;8.40;99.90;;;;;;2603670;54;20027;31
2023/11/10 06:37:57;;;;;;;124.00;44.97;;;8.40;99.90;;;;;;2603906;54;20049;31
2023/11/10 06:40:35;;;;;;;112.65;42.80;;;8.50;99.90;;;;;;2622297;46;20537;31
2023/11/10 06:43:11;;;;;;;64.43;27.80;;;8.50;99.90;;;;;;2603387;54;20034;31
2023/11/10 06:45:47;;;;;;;56.33;24.30;;;8.50;99.90;;;;;;2603626;54;20632;31
2023/11/10 06:48:22;;;;;;;33.50;16.10;;;8.50;99.90;;;;;;2603568;54;20798;31
2023/11/10 06:51:00;;;;;;;22.23;11.55;;;8.40;99.90;;;;;;2701822;39;20518;31
2023/11/10 06:53:36;;;;;;;10.35;6.53;;;8.50;99.90;;;;;;2603502;54;20085;31
2023/11/10 06:56:17;;;;;;;8.10;4.70;;;8.50;99.90;;;;;;2622374;46;20805;31
2023/11/10 06:58:53;;;;;;;6.82;4.22;;;8.70;99.90;;;;;;2603524;54;20572;31
2023/11/10 07:01:29;;;;;;;6.43;4.53;;;8.70;99.90;;;;;;2603127;54;20950;31
2023/11/10 07:04:06;;;;;;;8.25;4.75;;;8.80;99.90;;;;;;2621959;46;20033;31
2023/11/10 07:06:42;;;;;;;6.45;4.10;;;8.90;99.90;;;;;;2603341;54;20921;31
2023/11/10 07:09:19;;;;;;;7.60;4.32;;;9.00;99.90;;;;;;2603234;54;21702;31
2023/11/10 07:11:57;;;;;;;7.65;4.55;;;9.10;99.90;;;;;;2773423;31;20639;31
2023/11/10 07:14:33;;;;;;;6.28;4.28;;;9.20;99.90;;;;;;2603492;54;20908;31
2023/11/10 07:17:09;;;;;;;7.70;4.40;;;9.30;99.90;;;;;;2603301;54;20884;31
2023/11/10 07:19:44;;;;;;;6.85;4.40;;;9.50;99.90;;;;;;2603314;54;20057;31
2023/11/10 07:22:20;;;;;;;5.60;4.27;;;9.80;99.90;;;;;;2603153;54;20499;31
2023/11/10 07:24:55;;;;;;;5.30;4.13;;;10.20;99.90;;;;;;2603290;54;21193;31
2023/11/10 07:27:33;;;;;;;5.70;3.93;;;10.70;97.80;;;;;;2621654;46;20026;31
2023/11/10 07:30:11;;;;;;;5.35;3.67;;;11.10;95.40;;;;;;2603310;54;20113;31
2023/11/10 07:32:46;;;;;;;6.85;3.90;;;11.40;90.40;;;;;;2603313;54;20789;31
2023/11/10 07:35:22;;;;;;;5.63;4.10;;;11.60;81.10;;;;;;2701380;39;21648;31
2023/11/10 07:37:58;;;;;;;7.28;4.22;;;11.70;79.50;;;;;;2603173;54;20200;31
2023/11/10 07:40:34;;;;;;;9.23;5.25;;;11.60;73.70;;;;;;2603338;54;20042;31
2023/11/10 07:43:12;;;;;;;7.85;4.72;;;11.50;72.70;;;;;;2603203;54;20082;31
2023/11/10 07:45:48;;;;;;;7.25;4.97;;;11.30;75.30;;;;;;2603197;54;20022;31
2023/11/10 07:48:26;;;;;;;7.80;4.57;;;11.10;77.50;;;;;;2603275;54;20663;31
2023/11/10 07:51:03;;;;;;;9.27;5.05;;;11.00;79.50;;;;;;2603519;54;20824;31
2023/11/10 07:53:40;;;;;;;11.15;4.80;;;10.90;82.40;;;;;;2603214;54;20925;31
2023/11/10 07:56:15;;;;;;;6.40;4.30;;;10.80;83.20;;;;;;2603528;54;20085;31
2023/11/10 07:58:53;;;;;;;6.70;4.20;;;10.70;84.90;;;;;;2602612;54;20888;31
2023/11/10 08:01:29;;;;;;;6.95;4.75;;;10.70;86.20;;;;;;2603350;54;21364;31
2023/11/10 08:04:05;;;;;;;6.90;4.25;;;10.70;86.70;;;;;;2701049;39;21731;31
2023/11/10 08:06:41;;;;;;;6.65;4.35;;;10.70;87.40;;;;;;2621335;46;20023;31
2023/11/10 08:09:17;;;;;;;7.20;4.70;;;10.80;86.20;;;;;;2603279;54;20245;31
2023/11/10 08:11:52;;;;;;;8.30;4.70;;;;;;;;;;2603234;54;20133;31
2023/11/10 08:14:30;;;;;;;10.27;5.20;;;11.30;81.80;;;;;;2603103;54;20940;31
2023/11/10 08:17:07;;;;;;;7.33;4.20;;;11.30;83.20;;;;;;2603163;54;20655;31
2023/11/10 08:19:44;;;;;;;7.35;4.55;;;11.50;78.70;;;;;;2603104;54;20895;31
2023/11/10 08:22:19;;;;;;;6.55;4.72;;;11.60;73.90;;;;;;2603319;54;20057;31
2023/11/10 08:24:55;;;;;;;7.10;4.50;;;11.70;72.60;;;;;;2701601;39;21652;31
2023/11/10 08:27:33;;;;;;;7.07;4.45;;;11.90;70.50;;;;;;2621536;46;20042;31
2023/11/10 08:30:14;;;;;;;7.38;4.35;;;12.00;67.10;;;;;;2603185;54;20026;31
2023/11/10 08:32:49;;;;;;;6.70;4.40;;;12.10;68.70;;;;;;2602189;54;20037;31
2023/11/10 08:35:25;;;;;;;6.90;3.80;;;12.20;61.00;;;;;;2603193;54;20057;31
2023/11/10 08:38:02;;;;;;;6.22;3.95;;;12.20;61.00;;;;;;2603337;54;20830;31
2023/11/10 08:40:38;;;;;;;7.13;4.78;;;12.20;57.60;;;;;;2603231;54;20046;31
2023/11/10 08:43:14;;;;;;;9.48;4.60;;;12.20;57.00;;;;;;2602770;54;20034;31
2023/11/10 08:45:53;;;;;;;9.73;5.50;;;;;;;;;;2630297;39;20421;-80
2023/11/10 08:48:25;;;;;;;6.95;4.40;;;12.30;52.90;;;;;;2602937;54;20120;31
2023/11/10 08:51:03;;;;;;;6.82;4.45;;;12.30;71.50;;;;;;2605323;54;20793;-80
2023/11/10 08:53:37;;;;;;;7.55;3.95;;;;;;;;;;2605885;54;20575;-79
2023/11/10 08:56:13;;;;;;;6.57;4.43;;;12.40;52.10;;;;;;2669538;39;20455;31
2023/11/10 08:58:48;;;;;;;11.05;4.10;;;12.40;52.80;;;;;;2602980;54;20026;31
2023/11/10 09:01:26;;;;;;;8.43;4.97;;;12.40;53.20;;;;;;2603055;54;20089;31
2023/11/10 09:04:03;;;;;;;8.30;5.20;;;12.40;54.60;;;;;;2602933;54;20865;31
2023/11/10 09:06:55;;;;;;;7.90;4.90;;;12.50;53.70;;;;;;2603091;54;21696;31
2023/11/10 09:09:30;;;;;;;5.87;4.30;;;12.50;53.00;;;;;;2602833;54;20905;31
2023/11/10 09:12:06;;;;;;;9.82;5.03;;;12.60;54.10;;;;;;2602903;54;20910;31
2023/11/10 09:14:42;;;;;;;9.52;5.07;;;12.70;52.20;;;;;;2602840;54;20745;31
2023/11/10 09:17:24;;;;;;;8.13;4.90;;;12.70;53.10;;;;;;2621663;47;20027;31
2023/11/10 09:20:00;;;;;;;7.97;4.90;;;12.70;51.20;;;;;;2621843;47;20762;31
2023/11/10 09:22:40;;;;;;;6.88;4.88;;;12.60;50.50;;;;;;2621297;47;20031;31
2023/11/10 09:25:16;;;;;;;8.85;4.85;;;;;;;;;;2605765;54;20519;31
2023/11/10 09:27:55;;;;;;;8.75;4.35;;;12.60;64.30;;;;;;2606160;54;20022;31
2023/11/10 09:30:33;;;;;;;8.52;4.65;;;12.60;52.00;;;;;;2602998;54;21666;31
2023/11/10 09:33:12;;;;;;;6.75;4.60;;;12.60;51.10;;;;;;2621618;47;21646;31
2023/11/10 09:35:48;;;;;;;8.35;4.40;;;12.50;47.80;;;;;;2602557;54;20932;31
2023/11/10 09:38:24;;;;;;;9.85;3.95;;;12.40;48.90;;;;;;2621286;47;20108;31
2023/11/10 09:41:02;;;;;;;6.47;3.90;;;12.40;50.50;;;;;;2602623;54;20961;31
2023/11/10 09:43:38;;;;;;;7.57;4.40;;;12.20;49.30;;;;;;2602800;54;20104;31
2023/11/10 09:46:16;;;;;;;9.38;4.15;;;12.10;52.30;;;;;;2602968;54;20821;31
2023/11/10 09:48:55;;;;;;;7.87;4.77;;;12.10;53.30;;;;;;2602854;54;20023;31
2023/11/10 09:51:31;;;;;;;7.40;4.10;;;12.10;55.60;;;;;;2602922;54;20813;31
2023/11/10 09:54:05;;;;;;;;;;;12.00;54.60;;;;;;2621747;47;20383;31
2023/11/10 09:56:43;;;;;;;6.38;4.13;;;12.00;55.00;;;;;;2603330;54;19990;31
2023/11/10 09:59:19;;;;;;;7.60;3.85;;;12.00;56.30;;;;;;2603878;54;20056;31
2023/11/10 10:01:54;;;;;;;10.38;3.80;;;12.00;55.20;;;;;;2603438;54;20637;31
2023/11/10 10:04:32;;;;;;;10.05;4.50;;;12.00;71.20;;;;;;2603551;54;20101;31
2023/11/10 10:07:09;;;;;;;7.90;4.00;;;12.00;60.70;;;;;;2603388;54;20093;31
2023/11/10 10:09:46;;;;;;;6.55;4.18;;;12.00;59.00;;;;;;2603616;54;20869;31
2023/11/10 10:12:24;;;;;;;8.50;4.20;;;12.00;57.40;;;;;;2603435;54;20050;31
2023/11/10 10:15:00;;;;;;;8.05;4.90;;;12.00;59.30;;;;;;2602943;54;20048;31
2023/11/10 10:17:36;;;;;;;8.85;5.18;;;11.90;58.30;;;;;;2603405;54;20026;31
2023/11/10 10:20:18;;;;;;;8.10;5.18;;;11.80;58.70;;;;;;2622475;46;20880;31
2023/11/10 10:22:54;;;;;;;8.93;4.25;;;11.70;59.20;;;;;;2622304;46;20138;31
2023/11/10 10:25:32;;;;;;;;;;;11.70;60.30;;;;;;2603799;54;20084;31
2023/11/10 10:28:10;;;;;;;11.15;5.45;;;11.70;63.00;;;;;;2603702;54;19934;31
2023/11/10 10:30:47;;;;;;;9.73;5.70;;;11.70;62.50;;;;;;2603658;54;20801;31
2023/11/10 10:33:23;;;;;;;9.52;5.65;;;11.70;62.10;;;;;;2622007;46;20036;31
2023/11/10 10:35:56;;;;;;;11.30;5.45;;;11.60;64.40;;;;;;2603512;54;20949;31
2023/11/10 10:38:35;;;;;;;10.65;5.25;;;11.70;64.00;;;;;;2603416;54;20993;31
2023/11/10 10:41:11;;;;;;;8.43;4.32;;;11.70;63.70;;;;;;2603603;54;20815;31
2023/11/10 10:43:47;;;;;;;6.05;3.90;;;11.70;63.90;;;;;;2603461;54;20033;31
2023/11/10 10:46:46;;;;;;;7.70;3.97;;;12.00;73.50;;;;;;2603620;54;20820;31
2023/11/10 10:49:22;;;;;;;6.88;4.43;;;;;;;;;;2603610;54;20109;31
2023/11/10 10:51:59;;;;;;;7.07;3.87;;;11.80;57.00;;;;;;2603559;54;19993;31
2023/11/10 10:54:37;;;;;;;6.80;3.80;;;11.80;58.00;;;;;;2621942;46;20026;31
2023/11/10 10:57:13;;;;;;;8.43;4.80;;;11.70;58.90;;;;;;2603398;54;20811;31
2023/11/10 10:59:49;;;;;;;8.07;4.80;;;;;;;;;;2603486;54;20896;31
2023/11/10 11:02:26;;;;;;;9.25;4.40;;;;;;;;;;2605581;54;20023;31
2023/11/10 11:05:11;;;;;;;10.20;4.25;;;11.80;57.20;;;;;;2603126;54;20030;31
2023/11/10 11:08:03;;;;;;;8.38;4.22;;;;;;;;;;2606666;54;20034;31
2023/11/10 11:10:37;;;;;;;8.55;4.50;;;;;;;;;;2605528;54;20038;31
2023/11/10 11:13:18;;;;;;;7.93;4.38;;;;;;;;;;2607471;46;20844;-80
2023/11/10 11:16:12;;;;;;;8.02;4.30;;;11.80;56.80;;;;;;2603394;54;20925;31
2023/11/10 11:19:05;;;;;;;7.72;4.35;;;;;;;;;;2604829;54;20610;31
2023/11/10 11:21:37;;;;;;;7.70;4.35;;;;;;;;;;2603951;54;20033;31
2023/11/10 11:24:12;;;;;;;10.65;4.68;;;;;;;;;;2603435;54;20103;31
2023/11/10 11:26:56;;;;;;;7.90;4.33;;;;;;;;;;2603311;46;20520;31
2023/11/10 11:29:37;;;;;;;8.15;4.13;;;11.80;56.00;;;;;;2603534;54;20906;31
2023/11/10 11:32:22;;;;;;;8.27;4.83;;;11.70;72.50;;;;;;2603143;54;20034;31
2023/11/10 11:34:58;;;;;;;6.72;4.20;;;11.70;57.50;;;;;;2603104;54;20023;31
2023/11/10 11:37:35;;;;;;;7.50;5.10;;;11.70;58.40;;;;;;2622040;46;20030;31
2023/11/10 11:40:14;;;;;;;8.77;4.53;;;11.60;61.20;;;;;;2603488;54;20053;31
2023/11/10 11:42:52;;;;;;;8.30;5.43;;;11.60;62.50;;;;;;2603398;54;20061;31
2023/11/10 11:45:28;;;;;;;9.02;5.22;;;11.60;63.20;;;;;;2603107;54;20798;31
2023/11/10 11:48:09;;;;;;;11.50;5.50;;;11.60;64.10;;;;;;2603186;54;20913;31
2023/11/10 11:50:46;;;;;;;8.20;4.83;;;11.60;64.70;;;;;;2603343;54;20022;31
2023/11/10 11:53:26;;;;;;;9.30;5.05;;;;;;;;;;2701817;39;20772;31
2023/11/10 11:56:04;;;;;;;6.17;3.77;;;11.60;80.00;;;;;;2617565;46;20037;31
2023/11/10 11:58:43;;;;;;;9.65;4.65;;;11.60;65.60;;;;;;2603437;54;20027;31
2023/11/10 12:01:18;;;;;;;10.52;5.30;;;;;;;;;;2605148;54;20030;31
2023/11/10 12:03:56;;;;;;;7.40;4.20;;;11.50;67.00;;;;;;2602918;54;20036;31
2023/11/10 12:06:32;;;;;;;8.13;4.93;;;11.50;68.20;;;;;;2603347;54;20038;31
2023/11/10 12:09:09;;;;;;;;;;;11.40;72.40;;;;;;2603160;54;20026;31
2023/11/10 12:11:49;;;;;;;10.77;4.78;;;11.30;75.40;;;;;;2603279;54;19942;31
2023/11/10 12:14:25;;;;;;;11.05;5.25;;;11.30;76.10;;;;;;2603329;54;20804;31
2023/11/10 12:17:05;;;;;;;18.35;8.35;;;11.20;76.60;;;;;;2621566;46;20033;31
2023/11/10 12:19:48;;;;;;;15.30;6.15;;;11.20;78.40;;;;;;2603378;54;20815;31
2023/11/10 12:22:24;;;;;;;17.02;6.53;;;11.20;77.80;;;;;;2603382;54;20907;31
2023/11/10 12:25:02;;;;;;;17.23;6.33;;;11.20;78.70;;;;;;2603041;54;20026;31
2023/11/10 12:27:40;;;;;;;12.03;5.90;;;11.10;79.30;;;;;;2603305;54;20030;31
2023/11/10 12:30:16;;;;;;;14.45;6.40;;;11.10;79.90;;;;;;2603101;54;20701;31
2023/11/10 12:32:55;;;;;;;15.55;6.20;;;11.10;80.30;;;;;;2603263;54;20569;31
2023/11/10 12:35:34;;;;;;;17.88;6.40;;;11.10;80.00;;;;;;2621645;46;20031;31
2023/11/10 12:38:10;;;;;;;11.50;5.85;;;11.10;80.00;;;;;;2602940;54;20038;31
2023/11/10 12:40:46;;;;;;;14.93;5.32;;;11.10;80.40;;;;;;2603166;54;20046;31
2023/11/10 12:43:23;;;;;;;;;;;11.10;80.60;;;;;;2619158;46;20911;31
2023/11/10 12:45:59;;;;;;;8.43;4.65;;;11.10;79.40;;;;;;2603162;54;20741;31
2023/11/10 12:48:36;;;;;;;13.15;7.40;;;11.10;80.40;;;;;;2602980;54;20037;31
2023/11/10 12:51:16;;;;;;;10.25;4.50;;;11.10;80.10;;;;;;2603103;54;20023;31
2023/11/10 12:53:52;;;;;;;6.67;4.00;;;11.10;79.70;;;;;;2603381;54;20032;31
2023/11/10 12:56:35;;;;;;;7.40;3.63;;;11.10;80.10;;;;;;2602611;54;20038;31
2023/11/10 12:59:11;;;;;;;9.40;4.27;;;11.10;79.50;;;;;;2603081;54;21377;31
2023/11/10 13:01:46;;;;;;;6.72;4.13;;;11.10;81.40;;;;;;2602830;54;20996;31
2023/11/10 13:04:23;;;;;;;9.93;4.57;;;11.10;80.40;;;;;;2603013;54;20027;31
2023/11/10 13:07:04;;;;;;;7.87;4.97;;;11.10;80.40;;;;;;2602785;54;20027;31
2023/11/10 13:09:41;;;;;;;10.20;4.80;;;11.00;81.80;;;;;;2603144;54;20022;31
2023/11/10 13:12:17;;;;;;;8.93;4.40;;;11.10;81.30;;;;;;2602381;54;20034;31
2023/11/10 13:14:56;;;;;;;8.37;4.37;;;11.10;82.30;;;;;;2603211;54;20034;31
2023/11/10 13:17:32;;;;;;;6.80;4.00;;;11.00;85.00;;;;;;2603080;54;20020;31
2023/11/10 13:20:10;;;;;;;;;;;11.00;85.40;;;;;;2603439;54;20030;31
2023/11/10 13:22:47;;;;;;;11.20;3.75;;;11.00;83.50;;;;;;2621431;47;20024;31
2023/11/10 13:25:26;;;;;;;9.23;4.68;;;10.90;84.00;;;;;;2603044;54;20085;31
2023/11/10 13:28:07;;;;;;;7.60;3.95;;;10.90;84.40;;;;;;2603135;54;20033;31
2023/11/10 13:30:43;;;;;;;6.65;3.90;;;10.90;84.40;;;;;;2702304;39;21706;31
2023/11/10 13:33:20;;;;;;;8.73;4.00;;;10.90;82.60;;;;;;2702235;39;21592;31
2023/11/10 13:35:57;;;;;;;8.35;5.15;;;10.90;82.20;;;;;;2603779;54;20027;31
2023/11/10 13:38:36;;;;;;;11.65;4.80;;;10.90;81.00;;;;;;2603719;54;20049;31
2023/11/10 13:41:15;;;;;;;5.88;3.88;;;10.90;81.10;;;;;;2603901;54;20052;31
2023/11/10 13:43:50;;;;;;;4.65;3.40;;;10.90;80.60;;;;;;2603078;54;20022;31
2023/11/10 13:46:27;;;;;;;8.15;4.03;;;10.90;80.70;;;;;;2602941;54;20999;31
2023/11/10 13:49:05;;;;;;;5.40;3.65;;;10.90;81.30;;;;;;2603441;54;20027;31
2023/11/10 13:51:44;;;;;;;6.55;3.90;;;10.90;81.40;;;;;;2621901;46;20927;31
2023/11/10 13:54:20;;;;;;;8.15;4.07;;;10.90;82.80;;;;;;2603727;54;20154;31
2023/11/10 13:57:00;;;;;;;5.20;3.50;;;10.90;82.30;;;;;;2615980;46;20049;31
2023/11/10 13:59:39;;;;;;;6.88;4.18;;;10.90;83.20;;;;;;2701587;39;21628;31
2023/11/10 14:02:19;;;;;;;6.85;4.25;;;10.90;83.00;;;;;;2603613;54;20837;31
2023/11/10 14:04:59;;;;;;;9.30;3.90;;;10.90;82.80;;;;;;2622133;46;20085;31
2023/11/10 14:07:35;;;;;;;9.23;4.00;;;10.90;82.60;;;;;;2621997;46;20937;31
2023/11/10 14:10:10;;;;;;;;;;;10.80;82.90;;;;;;2604198;54;20026;31
2023/11/10 14:12:50;;;;;;;6.30;4.45;;;10.80;82.70;;;;;;2622004;46;19934;31
2023/11/10 14:15:27;;;;;;;8.15;4.05;;;10.80;84.00;;;;;;2622068;46;20030;31
2023/11/10 14:18:10;;;;;;;7.03;4.18;;;10.80;83.50;;;;;;2773441;31;25151;31
2023/11/10 14:20:46;;;;;;;7.68;4.65;;;10.80;83.30;;;;;;2603624;54;20116;31
2023/11/10 14:23:25;;;;;;;10.03;4.43;;;10.70;85.20;;;;;;2603575;54;20022;31
2023/11/10 14:26:04;;;;;;;7.20;4.55;;;10.70;83.00;;;;;;2603635;54;20329;31